sensor_id;sensor_type;location;lat;lon;timestamp;temperature;humidity
39777;DHT22;25453;48.162;14.510;2023-11-22T00:01:05;10.20;78.80
39777;DHT22;25453;48.162;14.510;2023-11-22T00:03:32;10.20;78.80
39777;DHT22;25453;48.162;14.510;2023-11-22T00:06:00;10.20;78.80
39777;DHT22;25453;48.162;14.510;2023-11-22T00:08:28;10.30;78.80
39777;DHT22;25453;48.162;14.510;2023-11-22T00:10:56;10.20;78.70
39777;DHT22;25453;48.162;14.510;2023-11-22T00:13:23;10.20;78.80
39777;DHT22;25453;48.162;14.510;2023-11-22T00:15:50;10.30;78.80
39777;DHT22;25453;48.162;14.510;2023-11-22T00:18:17;10.20;78.70
39777;DHT22;25453;48.162;14.510;2023-11-22T00:20:44;10.20;78.70
39777;DHT22;25453;48.162;14.510;2023-11-22T00:23:14;10.20;78.70
39777;DHT22;25453;48.162;14.510;2023-11-22T00:25:41;10.20;78.70
39777;DHT22;25453;48.162;14.510;2023-11-22T00:28:08;10.20;78.60
39777;DHT22;25453;48.162;14.510;2023-11-22T00:30:35;10.20;78.50
39777;DHT22;25453;48.162;14.510;2023-11-22T00:33:02;10.20;78.50
39777;DHT22;25453;48.162;14.510;2023-11-22T00:35:31;10.20;78.50
39777;DHT22;25453;48.162;14.510;2023-11-22T00:37:59;10.10;78.40
39777;DHT22;25453;48.162;14.510;2023-11-22T00:40:26;10.10;78.40
39777;DHT22;25453;48.162;14.510;2023-11-22T00:42:53;10.10;78.20
39777;DHT22;25453;48.162;14.510;2023-11-22T00:45:20;10.10;78.20
39777;DHT22;25453;48.162;14.510;2023-11-22T00:47:48;10.10;78.20
39777;DHT22;25453;48.162;14.510;2023-11-22T00:50:15;10.00;78.20
39777;DHT22;25453;48.162;14.510;2023-11-22T00:52:47;10.00;78.10
39777;DHT22;25453;48.162;14.510;2023-11-22T00:55:14;10.00;78.00
39777;DHT22;25453;48.162;14.510;2023-11-22T00:57:41;10.00;78.00
39777;DHT22;25453;48.162;14.510;2023-11-22T01:00:08;9.90;77.90
39777;DHT22;25453;48.162;14.510;2023-11-22T01:02:36;9.90;77.80
39777;DHT22;25453;48.162;14.510;2023-11-22T01:05:07;9.90;77.80
39777;DHT22;25453;48.162;14.510;2023-11-22T01:07:42;9.80;77.70
39777;DHT22;25453;48.162;14.510;2023-11-22T01:10:09;9.80;77.70
39777;DHT22;25453;48.162;14.510;2023-11-22T01:12:36;9.80;77.50
39777;DHT22;25453;48.162;14.510;2023-11-22T01:15:04;9.70;77.60
39777;DHT22;25453;48.162;14.510;2023-11-22T01:17:32;9.70;77.60
39777;DHT22;25453;48.162;14.510;2023-11-22T01:20:00;9.70;77.40
39777;DHT22;25453;48.162;14.510;2023-11-22T01:22:27;9.70;77.50
39777;DHT22;25453;48.162;14.510;2023-11-22T01:24:54;9.70;77.40
39777;DHT22;25453;48.162;14.510;2023-11-22T01:27:21;9.60;77.30
39777;DHT22;25453;48.162;14.510;2023-11-22T01:29:48;9.60;77.10
39777;DHT22;25453;48.162;14.510;2023-11-22T01:32:15;9.60;77.00
39777;DHT22;25453;48.162;14.510;2023-11-22T01:34:43;9.60;76.80
39777;DHT22;25453;48.162;14.510;2023-11-22T01:37:10;9.50;76.90
39777;DHT22;25453;48.162;14.510;2023-11-22T01:39:39;9.50;76.90
39777;DHT22;25453;48.162;14.510;2023-11-22T01:42:07;9.50;77.10
39777;DHT22;25453;48.162;14.510;2023-11-22T01:44:35;9.50;77.10
39777;DHT22;25453;48.162;14.510;2023-11-22T01:47:02;9.50;77.00
39777;DHT22;25453;48.162;14.510;2023-11-22T01:49:31;9.50;76.90
39777;DHT22;25453;48.162;14.510;2023-11-22T01:51:58;9.40;76.80
39777;DHT22;25453;48.162;14.510;2023-11-22T01:54:25;9.40;76.80
39777;DHT22;25453;48.162;14.510;2023-11-22T01:56:52;9.40;76.70
39777;DHT22;25453;48.162;14.510;2023-11-22T01:59:20;9.40;76.60
39777;DHT22;25453;48.162;14.510;2023-11-22T02:01:48;9.40;76.50
39777;DHT22;25453;48.162;14.510;2023-11-22T02:04:16;9.30;76.20
39777;DHT22;25453;48.162;14.510;2023-11-22T02:06:43;9.30;76.20
39777;DHT22;25453;48.162;14.510;2023-11-22T02:09:10;9.30;76.40
39777;DHT22;25453;48.162;14.510;2023-11-22T02:11:41;9.30;76.20
39777;DHT22;25453;48.162;14.510;2023-11-22T02:14:08;9.30;76.00
39777;DHT22;25453;48.162;14.510;2023-11-22T02:16:36;9.30;75.80
39777;DHT22;25453;48.162;14.510;2023-11-22T02:19:04;9.30;75.70
39777;DHT22;25453;48.162;14.510;2023-11-22T02:21:33;9.20;75.30
39777;DHT22;25453;48.162;14.510;2023-11-22T02:24:00;9.20;75.10
39777;DHT22;25453;48.162;14.510;2023-11-22T02:26:28;9.20;74.90
39777;DHT22;25453;48.162;14.510;2023-11-22T02:28:57;9.10;74.80
39777;DHT22;25453;48.162;14.510;2023-11-22T02:31:26;9.10;74.60
39777;DHT22;25453;48.162;14.510;2023-11-22T02:33:54;9.10;74.60
39777;DHT22;25453;48.162;14.510;2023-11-22T02:36:22;9.10;74.50
39777;DHT22;25453;48.162;14.510;2023-11-22T02:38:53;9.10;74.20
39777;DHT22;25453;48.162;14.510;2023-11-22T02:41:20;9.00;74.00
39777;DHT22;25453;48.162;14.510;2023-11-22T02:43:47;9.00;73.90
39777;DHT22;25453;48.162;14.510;2023-11-22T02:46:14;9.00;73.70
39777;DHT22;25453;48.162;14.510;2023-11-22T02:48:41;9.00;73.60
39777;DHT22;25453;48.162;14.510;2023-11-22T02:51:09;8.90;73.30
39777;DHT22;25453;48.162;14.510;2023-11-22T02:53:37;8.90;73.20
39777;DHT22;25453;48.162;14.510;2023-11-22T02:56:04;8.90;73.20
39777;DHT22;25453;48.162;14.510;2023-11-22T02:58:32;8.90;73.00
39777;DHT22;25453;48.162;14.510;2023-11-22T03:00:59;8.90;72.90
39777;DHT22;25453;48.162;14.510;2023-11-22T03:03:26;8.80;72.70
39777;DHT22;25453;48.162;14.510;2023-11-22T03:05:54;8.80;72.60
39777;DHT22;25453;48.162;14.510;2023-11-22T03:08:21;8.80;72.50
39777;DHT22;25453;48.162;14.510;2023-11-22T03:10:48;8.80;72.30
39777;DHT22;25453;48.162;14.510;2023-11-22T03:13:17;8.80;72.50
39777;DHT22;25453;48.162;14.510;2023-11-22T03:15:45;8.80;72.30
39777;DHT22;25453;48.162;14.510;2023-11-22T03:18:12;8.70;72.20
39777;DHT22;25453;48.162;14.510;2023-11-22T03:20:39;8.70;72.20
39777;DHT22;25453;48.162;14.510;2023-11-22T03:23:09;8.70;72.10
39777;DHT22;25453;48.162;14.510;2023-11-22T03:25:37;8.70;71.90
39777;DHT22;25453;48.162;14.510;2023-11-22T03:28:04;8.70;72.00
39777;DHT22;25453;48.162;14.510;2023-11-22T03:30:31;8.70;72.00
39777;DHT22;25453;48.162;14.510;2023-11-22T03:32:58;8.70;71.80
39777;DHT22;25453;48.162;14.510;2023-11-22T03:35:25;8.70;71.80
39777;DHT22;25453;48.162;14.510;2023-11-22T03:37:52;8.70;71.70
39777;DHT22;25453;48.162;14.510;2023-11-22T03:40:19;8.70;71.50
39777;DHT22;25453;48.162;14.510;2023-11-22T03:42:47;8.70;71.40
39777;DHT22;25453;48.162;14.510;2023-11-22T03:45:14;8.70;71.30
39777;DHT22;25453;48.162;14.510;2023-11-22T03:47:41;8.70;71.40
39777;DHT22;25453;48.162;14.510;2023-11-22T03:50:08;8.70;71.40
39777;DHT22;25453;48.162;14.510;2023-11-22T03:52:35;8.70;71.30
39777;DHT22;25453;48.162;14.510;2023-11-22T03:55:03;8.70;71.20
39777;DHT22;25453;48.162;14.510;2023-11-22T03:57:30;8.70;71.00
39777;DHT22;25453;48.162;14.510;2023-11-22T03:59:57;8.70;70.80
39777;DHT22;25453;48.162;14.510;2023-11-22T04:02:24;8.70;70.70
39777;DHT22;25453;48.162;14.510;2023-11-22T04:04:51;8.70;70.60
39777;DHT22;25453;48.162;14.510;2023-11-22T04:07:18;8.70;70.60
39777;DHT22;25453;48.162;14.510;2023-11-22T04:09:46;8.60;70.60
39777;DHT22;25453;48.162;14.510;2023-11-22T04:12:13;8.60;70.40
39777;DHT22;25453;48.162;14.510;2023-11-22T04:14:40;8.60;70.40
39777;DHT22;25453;48.162;14.510;2023-11-22T04:17:07;8.60;70.50
39777;DHT22;25453;48.162;14.510;2023-11-22T04:19:35;8.50;70.30
39777;DHT22;25453;48.162;14.510;2023-11-22T04:22:03;8.50;70.30
39777;DHT22;25453;48.162;14.510;2023-11-22T04:24:30;8.50;70.20
39777;DHT22;25453;48.162;14.510;2023-11-22T04:26:57;8.50;70.00
39777;DHT22;25453;48.162;14.510;2023-11-22T04:29:24;8.40;69.60
39777;DHT22;25453;48.162;14.510;2023-11-22T04:31:51;8.40;69.60
39777;DHT22;25453;48.162;14.510;2023-11-22T04:34:18;8.30;69.60
39777;DHT22;25453;48.162;14.510;2023-11-22T04:36:45;8.30;69.70
39777;DHT22;25453;48.162;14.510;2023-11-22T04:39:13;8.30;69.70
39777;DHT22;25453;48.162;14.510;2023-11-22T04:41:40;8.30;69.80
39777;DHT22;25453;48.162;14.510;2023-11-22T04:44:07;8.30;69.50
39777;DHT22;25453;48.162;14.510;2023-11-22T04:46:34;8.30;69.60
39777;DHT22;25453;48.162;14.510;2023-11-22T04:49:01;8.30;69.80
39777;DHT22;25453;48.162;14.510;2023-11-22T04:51:28;8.30;69.80
39777;DHT22;25453;48.162;14.510;2023-11-22T04:53:56;8.30;69.80
39777;DHT22;25453;48.162;14.510;2023-11-22T04:56:23;8.30;69.80
39777;DHT22;25453;48.162;14.510;2023-11-22T04:58:50;8.40;69.80
39777;DHT22;25453;48.162;14.510;2023-11-22T05:01:17;8.40;69.70
39777;DHT22;25453;48.162;14.510;2023-11-22T05:03:48;8.50;69.70
39777;DHT22;25453;48.162;14.510;2023-11-22T05:06:15;8.50;69.70
39777;DHT22;25453;48.162;14.510;2023-11-22T05:08:43;8.50;69.60
39777;DHT22;25453;48.162;14.510;2023-11-22T05:11:10;8.60;69.50
39777;DHT22;25453;48.162;14.510;2023-11-22T05:13:37;8.60;69.30
39777;DHT22;25453;48.162;14.510;2023-11-22T05:16:04;8.60;69.20
39777;DHT22;25453;48.162;14.510;2023-11-22T05:18:31;8.60;69.20
39777;DHT22;25453;48.162;14.510;2023-11-22T05:20:58;8.60;69.10
39777;DHT22;25453;48.162;14.510;2023-11-22T05:23:25;8.60;69.20
39777;DHT22;25453;48.162;14.510;2023-11-22T05:25:52;8.60;69.20
39777;DHT22;25453;48.162;14.510;2023-11-22T05:28:19;8.60;69.10
39777;DHT22;25453;48.162;14.510;2023-11-22T05:30:46;8.60;69.20
39777;DHT22;25453;48.162;14.510;2023-11-22T05:33:13;8.50;69.10
39777;DHT22;25453;48.162;14.510;2023-11-22T05:35:40;8.50;69.20
39777;DHT22;25453;48.162;14.510;2023-11-22T05:38:08;8.50;69.20
39777;DHT22;25453;48.162;14.510;2023-11-22T05:40:35;8.50;69.30
39777;DHT22;25453;48.162;14.510;2023-11-22T05:43:02;8.50;69.20
39777;DHT22;25453;48.162;14.510;2023-11-22T05:45:29;8.50;69.20
39777;DHT22;25453;48.162;14.510;2023-11-22T05:47:56;8.50;69.10
39777;DHT22;25453;48.162;14.510;2023-11-22T05:50:24;8.50;69.00
39777;DHT22;25453;48.162;14.510;2023-11-22T05:52:52;8.50;69.00
39777;DHT22;25453;48.162;14.510;2023-11-22T05:55:19;8.40;68.90
39777;DHT22;25453;48.162;14.510;2023-11-22T05:57:46;8.40;68.80
39777;DHT22;25453;48.162;14.510;2023-11-22T06:00:13;8.40;68.70
39777;DHT22;25453;48.162;14.510;2023-11-22T06:02:41;8.40;68.70
39777;DHT22;25453;48.162;14.510;2023-11-22T06:05:08;8.40;68.60
39777;DHT22;25453;48.162;14.510;2023-11-22T06:07:36;8.40;68.60
39777;DHT22;25453;48.162;14.510;2023-11-22T06:10:03;8.40;68.60
39777;DHT22;25453;48.162;14.510;2023-11-22T06:12:30;8.40;68.60
39777;DHT22;25453;48.162;14.510;2023-11-22T06:14:57;8.40;68.60
39777;DHT22;25453;48.162;14.510;2023-11-22T06:17:24;8.40;68.40
39777;DHT22;25453;48.162;14.510;2023-11-22T06:19:54;8.40;68.30
39777;DHT22;25453;48.162;14.510;2023-11-22T06:22:21;8.40;68.20
39777;DHT22;25453;48.162;14.510;2023-11-22T06:24:48;8.40;68.10
39777;DHT22;25453;48.162;14.510;2023-11-22T06:27:15;8.40;68.00
39777;DHT22;25453;48.162;14.510;2023-11-22T06:29:42;8.40;67.90
39777;DHT22;25453;48.162;14.510;2023-11-22T06:32:13;8.40;68.00
39777;DHT22;25453;48.162;14.510;2023-11-22T06:34:41;8.40;67.80
39777;DHT22;25453;48.162;14.510;2023-11-22T06:37:08;8.40;67.80
39777;DHT22;25453;48.162;14.510;2023-11-22T06:39:35;8.40;67.70
39777;DHT22;25453;48.162;14.510;2023-11-22T06:42:04;8.40;67.50
39777;DHT22;25453;48.162;14.510;2023-11-22T06:44:31;8.40;67.50
39777;DHT22;25453;48.162;14.510;2023-11-22T06:46:59;8.40;67.50
39777;DHT22;25453;48.162;14.510;2023-11-22T06:49:26;8.40;67.50
39777;DHT22;25453;48.162;14.510;2023-11-22T06:51:53;8.50;67.30
39777;DHT22;25453;48.162;14.510;2023-11-22T06:54:20;8.50;67.30
39777;DHT22;25453;48.162;14.510;2023-11-22T06:56:47;8.50;66.90
39777;DHT22;25453;48.162;14.510;2023-11-22T06:59:14;8.40;66.90
39777;DHT22;25453;48.162;14.510;2023-11-22T07:01:41;8.40;66.60
39777;DHT22;25453;48.162;14.510;2023-11-22T07:04:08;8.30;66.70
39777;DHT22;25453;48.162;14.510;2023-11-22T07:06:37;8.30;66.70
39777;DHT22;25453;48.162;14.510;2023-11-22T07:09:05;8.30;66.70
39777;DHT22;25453;48.162;14.510;2023-11-22T07:11:32;8.30;66.70
39777;DHT22;25453;48.162;14.510;2023-11-22T07:13:59;8.30;66.70
39777;DHT22;25453;48.162;14.510;2023-11-22T07:16:26;8.30;66.70
39777;DHT22;25453;48.162;14.510;2023-11-22T07:18:53;8.30;66.80
39777;DHT22;25453;48.162;14.510;2023-11-22T07:21:20;8.30;66.70
39777;DHT22;25453;48.162;14.510;2023-11-22T07:23:47;8.30;66.60
39777;DHT22;25453;48.162;14.510;2023-11-22T07:26:18;8.30;66.50
39777;DHT22;25453;48.162;14.510;2023-11-22T07:28:46;8.30;66.50
39777;DHT22;25453;48.162;14.510;2023-11-22T07:31:14;8.20;66.30
39777;DHT22;25453;48.162;14.510;2023-11-22T07:33:41;8.20;66.30
39777;DHT22;25453;48.162;14.510;2023-11-22T07:36:08;8.20;66.30
39777;DHT22;25453;48.162;14.510;2023-11-22T07:38:36;8.20;66.20
39777;DHT22;25453;48.162;14.510;2023-11-22T07:41:05;8.20;66.20
39777;DHT22;25453;48.162;14.510;2023-11-22T07:43:34;8.10;66.20
39777;DHT22;25453;48.162;14.510;2023-11-22T07:46:05;8.10;66.50
39777;DHT22;25453;48.162;14.510;2023-11-22T07:48:35;8.10;66.50
39777;DHT22;25453;48.162;14.510;2023-11-22T07:51:03;8.10;66.60
39777;DHT22;25453;48.162;14.510;2023-11-22T07:53:32;8.00;66.70
39777;DHT22;25453;48.162;14.510;2023-11-22T07:56:01;8.00;66.90
39777;DHT22;25453;48.162;14.510;2023-11-22T07:58:31;7.90;66.90
39777;DHT22;25453;48.162;14.510;2023-11-22T08:00:58;7.90;67.00
39777;DHT22;25453;48.162;14.510;2023-11-22T08:03:26;7.90;67.10
39777;DHT22;25453;48.162;14.510;2023-11-22T08:05:53;7.90;67.20
39777;DHT22;25453;48.162;14.510;2023-11-22T08:08:22;7.80;67.40
39777;DHT22;25453;48.162;14.510;2023-11-22T08:10:50;7.80;67.80
39777;DHT22;25453;48.162;14.510;2023-11-22T08:13:20;7.80;68.00
39777;DHT22;25453;48.162;14.510;2023-11-22T08:15:50;7.80;68.30
39777;DHT22;25453;48.162;14.510;2023-11-22T08:18:19;7.80;68.30
39777;DHT22;25453;48.162;14.510;2023-11-22T08:20:46;7.80;68.50
39777;DHT22;25453;48.162;14.510;2023-11-22T08:23:13;7.80;68.70
39777;DHT22;25453;48.162;14.510;2023-11-22T08:25:42;7.90;68.50
39777;DHT22;25453;48.162;14.510;2023-11-22T08:28:11;7.90;68.50
39777;DHT22;25453;48.162;14.510;2023-11-22T08:30:38;7.90;68.60
39777;DHT22;25453;48.162;14.510;2023-11-22T08:33:08;8.00;68.70
39777;DHT22;25453;48.162;14.510;2023-11-22T08:35:35;8.10;68.70
39777;DHT22;25453;48.162;14.510;2023-11-22T08:38:02;8.10;68.60
39777;DHT22;25453;48.162;14.510;2023-11-22T08:40:30;8.10;68.50
39777;DHT22;25453;48.162;14.510;2023-11-22T08:42:57;8.10;68.40
39777;DHT22;25453;48.162;14.510;2023-11-22T08:45:24;8.10;68.50
39777;DHT22;25453;48.162;14.510;2023-11-22T08:47:51;8.20;68.50
39777;DHT22;25453;48.162;14.510;2023-11-22T08:50:18;8.20;68.40
39777;DHT22;25453;48.162;14.510;2023-11-22T08:52:46;8.20;68.30
39777;DHT22;25453;48.162;14.510;2023-11-22T08:55:13;8.20;68.40
39777;DHT22;25453;48.162;14.510;2023-11-22T08:57:41;8.20;68.30
39777;DHT22;25453;48.162;14.510;2023-11-22T09:00:09;8.20;68.30
39777;DHT22;25453;48.162;14.510;2023-11-22T09:02:37;8.20;68.20
39777;DHT22;25453;48.162;14.510;2023-11-22T09:05:06;8.20;68.30
39777;DHT22;25453;48.162;14.510;2023-11-22T09:07:35;8.30;68.40
39777;DHT22;25453;48.162;14.510;2023-11-22T09:10:03;8.30;68.10
39777;DHT22;25453;48.162;14.510;2023-11-22T09:12:37;8.30;68.10
39777;DHT22;25453;48.162;14.510;2023-11-22T09:15:06;8.30;68.10
39777;DHT22;25453;48.162;14.510;2023-11-22T09:17:40;8.30;68.20
39777;DHT22;25453;48.162;14.510;2023-11-22T09:20:10;8.40;68.20
39777;DHT22;25453;48.162;14.510;2023-11-22T09:22:41;8.40;68.00
39777;DHT22;25453;48.162;14.510;2023-11-22T09:25:12;8.40;67.80
39777;DHT22;25453;48.162;14.510;2023-11-22T09:27:39;8.40;67.50
39777;DHT22;25453;48.162;14.510;2023-11-22T09:30:07;8.50;67.20
39777;DHT22;25453;48.162;14.510;2023-11-22T09:32:37;8.40;67.00
39777;DHT22;25453;48.162;14.510;2023-11-22T09:35:05;8.40;66.50
39777;DHT22;25453;48.162;14.510;2023-11-22T09:37:33;8.30;66.20
39777;DHT22;25453;48.162;14.510;2023-11-22T09:40:02;8.20;66.00
39777;DHT22;25453;48.162;14.510;2023-11-22T09:42:35;8.20;66.20
39777;DHT22;25453;48.162;14.510;2023-11-22T09:45:02;8.20;66.20
39777;DHT22;25453;48.162;14.510;2023-11-22T09:47:30;8.20;66.10
39777;DHT22;25453;48.162;14.510;2023-11-22T09:49:58;8.20;66.10
39777;DHT22;25453;48.162;14.510;2023-11-22T09:52:32;8.20;65.70
39777;DHT22;25453;48.162;14.510;2023-11-22T09:55:02;8.20;65.80
39777;DHT22;25453;48.162;14.510;2023-11-22T09:57:29;8.20;65.70
39777;DHT22;25453;48.162;14.510;2023-11-22T09:59:57;8.30;65.50
39777;DHT22;25453;48.162;14.510;2023-11-22T10:02:24;8.30;65.40
39777;DHT22;25453;48.162;14.510;2023-11-22T10:04:54;8.30;65.30
39777;DHT22;25453;48.162;14.510;2023-11-22T10:07:22;8.30;65.40
39777;DHT22;25453;48.162;14.510;2023-11-22T10:09:49;8.30;65.50
39777;DHT22;25453;48.162;14.510;2023-11-22T10:12:20;8.30;65.50
39777;DHT22;25453;48.162;14.510;2023-11-22T10:14:47;8.30;65.40
39777;DHT22;25453;48.162;14.510;2023-11-22T10:17:15;8.40;65.30
39777;DHT22;25453;48.162;14.510;2023-11-22T10:19:46;8.40;65.20
39777;DHT22;25453;48.162;14.510;2023-11-22T10:22:13;8.50;65.10
39777;DHT22;25453;48.162;14.510;2023-11-22T10:24:44;8.50;64.90
39777;DHT22;25453;48.162;14.510;2023-11-22T10:27:13;8.50;64.70
39777;DHT22;25453;48.162;14.510;2023-11-22T10:29:44;8.50;64.40
39777;DHT22;25453;48.162;14.510;2023-11-22T10:32:15;8.50;64.40
39777;DHT22;25453;48.162;14.510;2023-11-22T10:34:42;8.50;64.40
39777;DHT22;25453;48.162;14.510;2023-11-22T10:37:09;8.50;64.50
39777;DHT22;25453;48.162;14.510;2023-11-22T10:39:36;8.50;64.50
39777;DHT22;25453;48.162;14.510;2023-11-22T10:42:03;8.60;64.40
39777;DHT22;25453;48.162;14.510;2023-11-22T10:44:32;8.70;64.40
39777;DHT22;25453;48.162;14.510;2023-11-22T10:47:00;8.70;64.30
39777;DHT22;25453;48.162;14.510;2023-11-22T10:49:27;8.70;63.90
39777;DHT22;25453;48.162;14.510;2023-11-22T10:51:55;8.70;63.80
39777;DHT22;25453;48.162;14.510;2023-11-22T10:54:23;8.80;63.70
39777;DHT22;25453;48.162;14.510;2023-11-22T10:56:54;8.80;63.50
39777;DHT22;25453;48.162;14.510;2023-11-22T10:59:26;8.80;63.40
39777;DHT22;25453;48.162;14.510;2023-11-22T11:01:55;8.80;63.10
39777;DHT22;25453;48.162;14.510;2023-11-22T11:04:33;8.80;63.00
39777;DHT22;25453;48.162;14.510;2023-11-22T11:07:02;8.80;62.90
39777;DHT22;25453;48.162;14.510;2023-11-22T11:09:30;8.80;62.90
39777;DHT22;25453;48.162;14.510;2023-11-22T11:11:59;8.80;62.90
39777;DHT22;25453;48.162;14.510;2023-11-22T11:14:29;8.80;62.60
39777;DHT22;25453;48.162;14.510;2023-11-22T11:16:57;8.80;62.30
39777;DHT22;25453;48.162;14.510;2023-11-22T11:19:25;8.80;62.30
39777;DHT22;25453;48.162;14.510;2023-11-22T11:21:54;8.80;62.10
39777;DHT22;25453;48.162;14.510;2023-11-22T11:24:22;8.80;62.10
39777;DHT22;25453;48.162;14.510;2023-11-22T11:26:49;8.90;62.00
39777;DHT22;25453;48.162;14.510;2023-11-22T11:29:35;8.90;61.60
39777;DHT22;25453;48.162;14.510;2023-11-22T11:32:03;8.80;61.50
39777;DHT22;25453;48.162;14.510;2023-11-22T11:34:31;8.80;61.40
39777;DHT22;25453;48.162;14.510;2023-11-22T11:37:01;8.80;61.40
39777;DHT22;25453;48.162;14.510;2023-11-22T11:39:28;8.80;61.40
39777;DHT22;25453;48.162;14.510;2023-11-22T11:47:26;8.80;61.30
39777;DHT22;25453;48.162;14.510;2023-11-22T11:49:54;8.80;61.30
39777;DHT22;25453;48.162;14.510;2023-11-22T11:52:22;8.80;61.20
39777;DHT22;25453;48.162;14.510;2023-11-22T11:54:50;8.90;61.20
39777;DHT22;25453;48.162;14.510;2023-11-22T11:57:17;8.90;61.00
39777;DHT22;25453;48.162;14.510;2023-11-22T11:59:44;8.90;60.80
39777;DHT22;25453;48.162;14.510;2023-11-22T12:02:13;8.80;60.70
39777;DHT22;25453;48.162;14.510;2023-11-22T12:04:40;8.80;60.80
39777;DHT22;25453;48.162;14.510;2023-11-22T12:07:11;8.80;60.80
39777;DHT22;25453;48.162;14.510;2023-11-22T12:09:38;8.90;60.80
39777;DHT22;25453;48.162;14.510;2023-11-22T12:12:05;8.90;60.70
39777;DHT22;25453;48.162;14.510;2023-11-22T12:14:32;8.90;60.60
39777;DHT22;25453;48.162;14.510;2023-11-22T12:17:00;8.80;60.50
39777;DHT22;25453;48.162;14.510;2023-11-22T12:19:27;8.80;60.60
39777;DHT22;25453;48.162;14.510;2023-11-22T12:21:55;8.80;60.70
39777;DHT22;25453;48.162;14.510;2023-11-22T12:24:22;8.90;60.70
39777;DHT22;25453;48.162;14.510;2023-11-22T12:26:49;8.90;60.60
39777;DHT22;25453;48.162;14.510;2023-11-22T12:29:17;8.90;60.50
39777;DHT22;25453;48.162;14.510;2023-11-22T12:31:48;8.90;60.50
39777;DHT22;25453;48.162;14.510;2023-11-22T12:34:17;8.90;60.50
39777;DHT22;25453;48.162;14.510;2023-11-22T12:36:45;8.90;60.60
39777;DHT22;25453;48.162;14.510;2023-11-22T12:39:14;8.80;60.70
39777;DHT22;25453;48.162;14.510;2023-11-22T12:41:44;8.80;60.60
39777;DHT22;25453;48.162;14.510;2023-11-22T12:44:20;8.80;60.70
39777;DHT22;25453;48.162;14.510;2023-11-22T12:46:49;8.80;60.50
39777;DHT22;25453;48.162;14.510;2023-11-22T12:49:17;8.80;60.50
39777;DHT22;25453;48.162;14.510;2023-11-22T12:51:48;8.80;60.60
39777;DHT22;25453;48.162;14.510;2023-11-22T12:54:16;8.80;60.50
39777;DHT22;25453;48.162;14.510;2023-11-22T12:56:43;8.90;60.40
39777;DHT22;25453;48.162;14.510;2023-11-22T12:59:10;8.90;60.30
39777;DHT22;25453;48.162;14.510;2023-11-22T13:01:37;8.90;60.40
39777;DHT22;25453;48.162;14.510;2023-11-22T13:04:04;8.90;60.30
39777;DHT22;25453;48.162;14.510;2023-11-22T13:06:32;8.90;60.20
39777;DHT22;25453;48.162;14.510;2023-11-22T13:08:59;8.90;60.10
39777;DHT22;25453;48.162;14.510;2023-11-22T13:11:26;8.90;60.00
39777;DHT22;25453;48.162;14.510;2023-11-22T13:13:53;8.90;59.90
39777;DHT22;25453;48.162;14.510;2023-11-22T13:16:20;8.90;59.70
39777;DHT22;25453;48.162;14.510;2023-11-22T13:18:47;8.90;59.60
39777;DHT22;25453;48.162;14.510;2023-11-22T13:21:15;8.90;59.40
39777;DHT22;25453;48.162;14.510;2023-11-22T13:23:42;8.90;59.50
39777;DHT22;25453;48.162;14.510;2023-11-22T13:26:09;8.90;59.60
39777;DHT22;25453;48.162;14.510;2023-11-22T13:28:40;8.90;59.50
39777;DHT22;25453;48.162;14.510;2023-11-22T13:31:09;8.90;59.40
39777;DHT22;25453;48.162;14.510;2023-11-22T13:33:36;8.90;59.40
39777;DHT22;25453;48.162;14.510;2023-11-22T13:36:05;8.90;59.40
39777;DHT22;25453;48.162;14.510;2023-11-22T13:38:34;8.90;59.40
39777;DHT22;25453;48.162;14.510;2023-11-22T13:41:01;8.90;59.40
39777;DHT22;25453;48.162;14.510;2023-11-22T13:43:29;8.90;59.30
39777;DHT22;25453;48.162;14.510;2023-11-22T13:45:56;8.90;59.30
39777;DHT22;25453;48.162;14.510;2023-11-22T13:48:23;8.90;59.30
39777;DHT22;25453;48.162;14.510;2023-11-22T13:50:51;8.80;59.20
39777;DHT22;25453;48.162;14.510;2023-11-22T13:53:18;8.80;59.40
39777;DHT22;25453;48.162;14.510;2023-11-22T13:55:49;8.80;59.40
39777;DHT22;25453;48.162;14.510;2023-11-22T13:58:20;8.80;59.40
39777;DHT22;25453;48.162;14.510;2023-11-22T14:00:47;8.80;59.40
39777;DHT22;25453;48.162;14.510;2023-11-22T14:03:16;8.80;59.40
39777;DHT22;25453;48.162;14.510;2023-11-22T14:05:43;8.80;59.40
39777;DHT22;25453;48.162;14.510;2023-11-22T14:08:10;8.80;59.30
39777;DHT22;25453;48.162;14.510;2023-11-22T14:10:38;8.80;59.40
39777;DHT22;25453;48.162;14.510;2023-11-22T14:13:05;8.80;59.50
39777;DHT22;25453;48.162;14.510;2023-11-22T14:15:33;8.80;59.50
39777;DHT22;25453;48.162;14.510;2023-11-22T14:18:00;8.80;59.50
39777;DHT22;25453;48.162;14.510;2023-11-22T14:20:27;8.80;59.50
39777;DHT22;25453;48.162;14.510;2023-11-22T14:22:56;8.90;59.50
39777;DHT22;25453;48.162;14.510;2023-11-22T14:25:23;8.90;59.50
39777;DHT22;25453;48.162;14.510;2023-11-22T14:27:50;8.90;59.40
39777;DHT22;25453;48.162;14.510;2023-11-22T14:30:21;8.90;59.30
39777;DHT22;25453;48.162;14.510;2023-11-22T14:32:48;8.90;59.30
39777;DHT22;25453;48.162;14.510;2023-11-22T14:35:18;8.90;59.30
39777;DHT22;25453;48.162;14.510;2023-11-22T14:37:46;8.90;59.30
39777;DHT22;25453;48.162;14.510;2023-11-22T14:40:14;8.90;59.30
39777;DHT22;25453;48.162;14.510;2023-11-22T14:42:42;8.80;59.30
39777;DHT22;25453;48.162;14.510;2023-11-22T14:45:09;8.80;59.30
39777;DHT22;25453;48.162;14.510;2023-11-22T14:47:55;8.80;59.30
39777;DHT22;25453;48.162;14.510;2023-11-22T14:50:24;8.80;59.30
39777;DHT22;25453;48.162;14.510;2023-11-22T14:52:55;8.80;59.30
39777;DHT22;25453;48.162;14.510;2023-11-22T14:55:22;8.80;59.30
39777;DHT22;25453;48.162;14.510;2023-11-22T14:57:53;8.80;59.30
39777;DHT22;25453;48.162;14.510;2023-11-22T15:00:24;8.70;59.20
39777;DHT22;25453;48.162;14.510;2023-11-22T15:02:52;8.70;59.30
39777;DHT22;25453;48.162;14.510;2023-11-22T15:05:22;8.70;59.30
39777;DHT22;25453;48.162;14.510;2023-11-22T15:07:50;8.70;59.30
39777;DHT22;25453;48.162;14.510;2023-11-22T15:10:24;8.70;59.30
39777;DHT22;25453;48.162;14.510;2023-11-22T15:12:53;8.70;59.30
39777;DHT22;25453;48.162;14.510;2023-11-22T15:15:21;8.70;59.40
39777;DHT22;25453;48.162;14.510;2023-11-22T15:17:52;8.70;59.30
39777;DHT22;25453;48.162;14.510;2023-11-22T15:20:19;8.70;59.30
39777;DHT22;25453;48.162;14.510;2023-11-22T15:22:46;8.60;59.40
39777;DHT22;25453;48.162;14.510;2023-11-22T15:25:13;8.70;59.40
39777;DHT22;25453;48.162;14.510;2023-11-22T15:27:42;8.60;59.30
39777;DHT22;25453;48.162;14.510;2023-11-22T15:30:14;8.60;59.30
39777;DHT22;25453;48.162;14.510;2023-11-22T15:32:43;8.60;59.20
39777;DHT22;25453;48.162;14.510;2023-11-22T15:35:10;8.50;59.20
39777;DHT22;25453;48.162;14.510;2023-11-22T15:37:38;8.50;59.30
39777;DHT22;25453;48.162;14.510;2023-11-22T15:40:05;8.50;59.30